sensor_id;sensor_type;location;lat;lon;timestamp;P1;durP1;ratioP1;P2;durP2;ratioP2
2906;SDS011;1463;51.070;16.998;2023-05-10T00:01:24;9.65;;;4.78;;
2906;SDS011;1463;51.070;16.998;2023-05-10T00:03:52;8.40;;;4.13;;
2906;SDS011;1463;51.070;16.998;2023-05-10T00:06:19;7.00;;;4.35;;
2906;SDS011;1463;51.070;16.998;2023-05-10T00:08:46;7.47;;;3.60;;
2906;SDS011;1463;51.070;16.998;2023-05-10T00:11:15;6.30;;;4.38;;
2906;SDS011;1463;51.070;16.998;2023-05-10T00:13:43;9.63;;;5.05;;
2906;SDS011;1463;51.070;16.998;2023-05-10T00:16:10;8.85;;;4.30;;
2906;SDS011;1463;51.070;16.998;2023-05-10T00:18:38;8.75;;;4.40;;
2906;SDS011;1463;51.070;16.998;2023-05-10T00:21:06;6.75;;;4.28;;
2906;SDS011;1463;51.070;16.998;2023-05-10T00:23:33;4.97;;;3.22;;
2906;SDS011;1463;51.070;16.998;2023-05-10T00:26:01;7.78;;;4.03;;
2906;SDS011;1463;51.070;16.998;2023-05-10T00:28:30;9.82;;;4.63;;
2906;SDS011;1463;51.070;16.998;2023-05-10T00:30:57;7.93;;;4.55;;
2906;SDS011;1463;51.070;16.998;2023-05-10T00:33:25;7.07;;;4.53;;
2906;SDS011;1463;51.070;16.998;2023-05-10T00:35:52;5.50;;;4.35;;
2906;SDS011;1463;51.070;16.998;2023-05-10T00:38:19;9.55;;;4.97;;
2906;SDS011;1463;51.070;16.998;2023-05-10T00:40:47;6.57;;;4.47;;
2906;SDS011;1463;51.070;16.998;2023-05-10T00:43:14;10.50;;;4.50;;
2906;SDS011;1463;51.070;16.998;2023-05-10T00:45:43;5.63;;;4.20;;
2906;SDS011;1463;51.070;16.998;2023-05-10T00:48:11;6.47;;;4.40;;
2906;SDS011;1463;51.070;16.998;2023-05-10T00:50:38;8.50;;;4.80;;
2906;SDS011;1463;51.070;16.998;2023-05-10T00:53:06;6.50;;;4.55;;
2906;SDS011;1463;51.070;16.998;2023-05-10T00:55:35;7.03;;;4.93;;
2906;SDS011;1463;51.070;16.998;2023-05-10T00:58:03;7.80;;;4.93;;
2906;SDS011;1463;51.070;16.998;2023-05-10T01:00:32;6.25;;;5.18;;
2906;SDS011;1463;51.070;16.998;2023-05-10T01:03:01;9.98;;;5.35;;
2906;SDS011;1463;51.070;16.998;2023-05-10T01:05:29;11.32;;;5.55;;
2906;SDS011;1463;51.070;16.998;2023-05-10T01:07:57;6.53;;;3.80;;
2906;SDS011;1463;51.070;16.998;2023-05-10T01:10:24;7.05;;;4.50;;
2906;SDS011;1463;51.070;16.998;2023-05-10T01:12:52;6.28;;;4.53;;
2906;SDS011;1463;51.070;16.998;2023-05-10T01:15:19;7.93;;;5.20;;
2906;SDS011;1463;51.070;16.998;2023-05-10T01:17:47;9.63;;;4.68;;
2906;SDS011;1463;51.070;16.998;2023-05-10T01:20:17;8.88;;;5.30;;
2906;SDS011;1463;51.070;16.998;2023-05-10T01:26:03;8.73;;;6.00;;
2906;SDS011;1463;51.070;16.998;2023-05-10T01:28:49;8.35;;;5.13;;
2906;SDS011;1463;51.070;16.998;2023-05-10T01:31:59;10.10;;;5.78;;
2906;SDS011;1463;51.070;16.998;2023-05-10T01:34:42;10.70;;;4.60;;
2906;SDS011;1463;51.070;16.998;2023-05-10T01:37:18;8.02;;;5.28;;
2906;SDS011;1463;51.070;16.998;2023-05-10T01:39:49;10.23;;;5.22;;
2906;SDS011;1463;51.070;16.998;2023-05-10T01:42:25;7.93;;;5.25;;
2906;SDS011;1463;51.070;16.998;2023-05-10T01:44:58;7.90;;;5.35;;
2906;SDS011;1463;51.070;16.998;2023-05-10T01:47:35;6.32;;;5.03;;
2906;SDS011;1463;51.070;16.998;2023-05-10T01:50:08;10.75;;;5.20;;
2906;SDS011;1463;51.070;16.998;2023-05-10T01:52:42;9.57;;;5.63;;
2906;SDS011;1463;51.070;16.998;2023-05-10T01:55:16;9.70;;;5.65;;
2906;SDS011;1463;51.070;16.998;2023-05-10T01:57:46;8.90;;;5.60;;
2906;SDS011;1463;51.070;16.998;2023-05-10T02:00:17;12.90;;;5.72;;
2906;SDS011;1463;51.070;16.998;2023-05-10T02:02:48;6.85;;;4.90;;
2906;SDS011;1463;51.070;16.998;2023-05-10T02:05:17;9.55;;;5.32;;
2906;SDS011;1463;51.070;16.998;2023-05-10T02:07:47;11.55;;;6.05;;
2906;SDS011;1463;51.070;16.998;2023-05-10T02:10:15;10.05;;;6.45;;
2906;SDS011;1463;51.070;16.998;2023-05-10T02:12:45;11.10;;;5.80;;
2906;SDS011;1463;51.070;16.998;2023-05-10T02:15:15;10.07;;;6.00;;
2906;SDS011;1463;51.070;16.998;2023-05-10T02:17:47;7.97;;;4.88;;
2906;SDS011;1463;51.070;16.998;2023-05-10T02:20:16;8.52;;;4.88;;
2906;SDS011;1463;51.070;16.998;2023-05-10T02:22:45;11.30;;;5.32;;
2906;SDS011;1463;51.070;16.998;2023-05-10T02:25:15;12.10;;;5.47;;
2906;SDS011;1463;51.070;16.998;2023-05-10T02:27:44;6.53;;;4.32;;
2906;SDS011;1463;51.070;16.998;2023-05-10T02:30:13;10.60;;;6.10;;
2906;SDS011;1463;51.070;16.998;2023-05-10T02:32:41;10.35;;;5.45;;
2906;SDS011;1463;51.070;16.998;2023-05-10T02:35:11;11.55;;;5.50;;
2906;SDS011;1463;51.070;16.998;2023-05-10T02:37:39;8.50;;;5.70;;
2906;SDS011;1463;51.070;16.998;2023-05-10T02:40:07;7.90;;;4.13;;
2906;SDS011;1463;51.070;16.998;2023-05-10T02:42:37;9.95;;;5.85;;
2906;SDS011;1463;51.070;16.998;2023-05-10T02:45:10;11.65;;;5.78;;
2906;SDS011;1463;51.070;16.998;2023-05-10T02:47:40;12.15;;;6.13;;
2906;SDS011;1463;51.070;16.998;2023-05-10T02:50:09;7.43;;;4.90;;
2906;SDS011;1463;51.070;16.998;2023-05-10T02:52:39;8.30;;;5.57;;
2906;SDS011;1463;51.070;16.998;2023-05-10T02:55:11;13.27;;;5.43;;
2906;SDS011;1463;51.070;16.998;2023-05-10T02:57:41;6.95;;;4.82;;
2906;SDS011;1463;51.070;16.998;2023-05-10T03:00:17;15.90;;;6.10;;
2906;SDS011;1463;51.070;16.998;2023-05-10T03:02:45;11.90;;;6.18;;
2906;SDS011;1463;51.070;16.998;2023-05-10T03:05:14;13.70;;;5.28;;
2906;SDS011;1463;51.070;16.998;2023-05-10T03:07:42;7.65;;;4.53;;
2906;SDS011;1463;51.070;16.998;2023-05-10T03:10:09;9.07;;;5.70;;
2906;SDS011;1463;51.070;16.998;2023-05-10T03:12:41;13.57;;;5.18;;
2906;SDS011;1463;51.070;16.998;2023-05-10T03:15:22;8.98;;;4.68;;
2906;SDS011;1463;51.070;16.998;2023-05-10T03:18:00;11.00;;;6.65;;
2906;SDS011;1463;51.070;16.998;2023-05-10T03:20:35;12.02;;;4.68;;
2906;SDS011;1463;51.070;16.998;2023-05-10T03:23:07;9.35;;;4.63;;
2906;SDS011;1463;51.070;16.998;2023-05-10T03:25:40;9.55;;;5.20;;
2906;SDS011;1463;51.070;16.998;2023-05-10T03:28:09;9.50;;;5.75;;
2906;SDS011;1463;51.070;16.998;2023-05-10T03:30:38;8.40;;;4.80;;
2906;SDS011;1463;51.070;16.998;2023-05-10T03:33:05;11.02;;;5.93;;
2906;SDS011;1463;51.070;16.998;2023-05-10T03:35:35;9.80;;;5.05;;
2906;SDS011;1463;51.070;16.998;2023-05-10T03:38:03;8.30;;;4.90;;
2906;SDS011;1463;51.070;16.998;2023-05-10T03:40:30;9.63;;;5.18;;
2906;SDS011;1463;51.070;16.998;2023-05-10T03:42:58;7.50;;;4.88;;
2906;SDS011;1463;51.070;16.998;2023-05-10T03:45:25;8.50;;;4.78;;
2906;SDS011;1463;51.070;16.998;2023-05-10T03:47:53;10.82;;;5.90;;
2906;SDS011;1463;51.070;16.998;2023-05-10T03:50:20;10.27;;;4.90;;
2906;SDS011;1463;51.070;16.998;2023-05-10T03:52:49;9.43;;;4.80;;
2906;SDS011;1463;51.070;16.998;2023-05-10T03:55:17;7.07;;;4.57;;
2906;SDS011;1463;51.070;16.998;2023-05-10T03:57:45;6.95;;;4.15;;
2906;SDS011;1463;51.070;16.998;2023-05-10T04:00:14;16.88;;;6.05;;
2906;SDS011;1463;51.070;16.998;2023-05-10T04:02:42;6.00;;;4.57;;
2906;SDS011;1463;51.070;16.998;2023-05-10T04:05:11;8.05;;;5.13;;
2906;SDS011;1463;51.070;16.998;2023-05-10T04:07:38;7.72;;;4.95;;
2906;SDS011;1463;51.070;16.998;2023-05-10T04:10:08;6.78;;;4.22;;
2906;SDS011;1463;51.070;16.998;2023-05-10T04:12:36;8.38;;;4.55;;
2906;SDS011;1463;51.070;16.998;2023-05-10T04:15:03;10.73;;;5.57;;
2906;SDS011;1463;51.070;16.998;2023-05-10T04:17:32;11.50;;;6.18;;
2906;SDS011;1463;51.070;16.998;2023-05-10T04:19:59;7.72;;;4.97;;
2906;SDS011;1463;51.070;16.998;2023-05-10T04:22:27;7.00;;;4.88;;
2906;SDS011;1463;51.070;16.998;2023-05-10T04:24:54;8.60;;;5.80;;
2906;SDS011;1463;51.070;16.998;2023-05-10T04:27:23;8.77;;;4.97;;
2906;SDS011;1463;51.070;16.998;2023-05-10T04:29:51;12.57;;;5.97;;
2906;SDS011;1463;51.070;16.998;2023-05-10T04:32:18;8.25;;;4.53;;
2906;SDS011;1463;51.070;16.998;2023-05-10T04:34:45;11.57;;;5.20;;
2906;SDS011;1463;51.070;16.998;2023-05-10T04:37:13;8.82;;;4.85;;
2906;SDS011;1463;51.070;16.998;2023-05-10T04:39:41;12.80;;;5.75;;
2906;SDS011;1463;51.070;16.998;2023-05-10T04:42:08;6.47;;;4.75;;
2906;SDS011;1463;51.070;16.998;2023-05-10T04:44:38;13.60;;;5.05;;
2906;SDS011;1463;51.070;16.998;2023-05-10T04:47:06;11.30;;;5.30;;
2906;SDS011;1463;51.070;16.998;2023-05-10T04:49:34;9.50;;;5.40;;
2906;SDS011;1463;51.070;16.998;2023-05-10T04:52:01;7.38;;;4.80;;
2906;SDS011;1463;51.070;16.998;2023-05-10T04:54:28;8.15;;;5.32;;
2906;SDS011;1463;51.070;16.998;2023-05-10T04:56:56;9.82;;;5.03;;
2906;SDS011;1463;51.070;16.998;2023-05-10T04:59:23;10.05;;;5.55;;
2906;SDS011;1463;51.070;16.998;2023-05-10T05:01:53;9.00;;;4.40;;
2906;SDS011;1463;51.070;16.998;2023-05-10T05:04:20;8.15;;;4.80;;
2906;SDS011;1463;51.070;16.998;2023-05-10T05:06:48;8.20;;;4.95;;
2906;SDS011;1463;51.070;16.998;2023-05-10T05:09:16;8.18;;;4.70;;
2906;SDS011;1463;51.070;16.998;2023-05-10T05:11:43;11.25;;;6.22;;
2906;SDS011;1463;51.070;16.998;2023-05-10T05:14:11;10.70;;;6.25;;
2906;SDS011;1463;51.070;16.998;2023-05-10T05:16:38;6.22;;;4.18;;
2906;SDS011;1463;51.070;16.998;2023-05-10T05:19:07;7.18;;;4.70;;
2906;SDS011;1463;51.070;16.998;2023-05-10T05:21:34;8.40;;;5.53;;
2906;SDS011;1463;51.070;16.998;2023-05-10T05:24:02;8.20;;;5.15;;
2906;SDS011;1463;51.070;16.998;2023-05-10T05:26:30;10.52;;;5.45;;
2906;SDS011;1463;51.070;16.998;2023-05-10T05:28:57;12.25;;;4.80;;
2906;SDS011;1463;51.070;16.998;2023-05-10T05:31:25;13.35;;;6.88;;
2906;SDS011;1463;51.070;16.998;2023-05-10T05:33:52;14.00;;;8.13;;
2906;SDS011;1463;51.070;16.998;2023-05-10T05:36:21;7.65;;;5.85;;
2906;SDS011;1463;51.070;16.998;2023-05-10T05:38:49;8.98;;;5.03;;
2906;SDS011;1463;51.070;16.998;2023-05-10T05:41:17;9.30;;;4.90;;
2906;SDS011;1463;51.070;16.998;2023-05-10T05:43:45;11.60;;;6.32;;
2906;SDS011;1463;51.070;16.998;2023-05-10T05:46:12;8.93;;;5.32;;
2906;SDS011;1463;51.070;16.998;2023-05-10T05:48:39;7.53;;;4.45;;
2906;SDS011;1463;51.070;16.998;2023-05-10T05:51:07;8.85;;;5.28;;
2906;SDS011;1463;51.070;16.998;2023-05-10T05:53:36;9.15;;;4.30;;
2906;SDS011;1463;51.070;16.998;2023-05-10T05:56:03;12.05;;;4.80;;
2906;SDS011;1463;51.070;16.998;2023-05-10T05:58:31;6.75;;;4.88;;
2906;SDS011;1463;51.070;16.998;2023-05-10T06:00:59;7.35;;;4.53;;
2906;SDS011;1463;51.070;16.998;2023-05-10T06:03:26;8.45;;;4.45;;
2906;SDS011;1463;51.070;16.998;2023-05-10T06:05:53;8.43;;;4.93;;
2906;SDS011;1463;51.070;16.998;2023-05-10T06:08:21;8.02;;;4.25;;
2906;SDS011;1463;51.070;16.998;2023-05-10T06:10:50;11.10;;;6.28;;
2906;SDS011;1463;51.070;16.998;2023-05-10T06:13:17;6.15;;;4.00;;
2906;SDS011;1463;51.070;16.998;2023-05-10T06:15:45;7.95;;;4.72;;
2906;SDS011;1463;51.070;16.998;2023-05-10T06:18:12;5.82;;;4.07;;
2906;SDS011;1463;51.070;16.998;2023-05-10T06:20:40;9.55;;;4.10;;
2906;SDS011;1463;51.070;16.998;2023-05-10T06:23:08;6.28;;;4.20;;
2906;SDS011;1463;51.070;16.998;2023-05-10T06:25:36;7.38;;;4.43;;
2906;SDS011;1463;51.070;16.998;2023-05-10T06:28:05;9.65;;;5.75;;
2906;SDS011;1463;51.070;16.998;2023-05-10T06:30:32;6.88;;;4.18;;
2906;SDS011;1463;51.070;16.998;2023-05-10T06:32:59;8.52;;;4.65;;
2906;SDS011;1463;51.070;16.998;2023-05-10T06:35:27;7.63;;;4.70;;
2906;SDS011;1463;51.070;16.998;2023-05-10T06:37:55;7.43;;;4.72;;
2906;SDS011;1463;51.070;16.998;2023-05-10T06:40:22;8.27;;;4.85;;
2906;SDS011;1463;51.070;16.998;2023-05-10T06:42:50;5.90;;;4.60;;
2906;SDS011;1463;51.070;16.998;2023-05-10T06:45:19;7.18;;;4.57;;
2906;SDS011;1463;51.070;16.998;2023-05-10T06:47:46;7.32;;;4.20;;
2906;SDS011;1463;51.070;16.998;2023-05-10T06:50:14;10.85;;;4.15;;
2906;SDS011;1463;51.070;16.998;2023-05-10T06:52:41;8.68;;;5.18;;
2906;SDS011;1463;51.070;16.998;2023-05-10T06:55:09;7.20;;;4.40;;
2906;SDS011;1463;51.070;16.998;2023-05-10T06:57:36;8.32;;;4.47;;
2906;SDS011;1463;51.070;16.998;2023-05-10T07:00:04;4.85;;;3.63;;
2906;SDS011;1463;51.070;16.998;2023-05-10T07:02:36;5.28;;;3.40;;
2906;SDS011;1463;51.070;16.998;2023-05-10T07:05:03;5.55;;;3.63;;
2906;SDS011;1463;51.070;16.998;2023-05-10T07:07:31;6.10;;;3.85;;
2906;SDS011;1463;51.070;16.998;2023-05-10T07:09:59;5.03;;;3.65;;
2906;SDS011;1463;51.070;16.998;2023-05-10T07:12:26;5.40;;;3.80;;
2906;SDS011;1463;51.070;16.998;2023-05-10T07:14:54;4.88;;;3.20;;
2906;SDS011;1463;51.070;16.998;2023-05-10T07:17:21;5.65;;;3.63;;
2906;SDS011;1463;51.070;16.998;2023-05-10T07:19:50;6.85;;;3.88;;
2906;SDS011;1463;51.070;16.998;2023-05-10T07:22:18;5.28;;;3.88;;
2906;SDS011;1463;51.070;16.998;2023-05-10T07:24:45;6.75;;;3.95;;
2906;SDS011;1463;51.070;16.998;2023-05-10T07:27:12;6.25;;;3.63;;
2906;SDS011;1463;51.070;16.998;2023-05-10T07:29:40;7.20;;;3.88;;
2906;SDS011;1463;51.070;16.998;2023-05-10T07:32:09;6.10;;;3.50;;
2906;SDS011;1463;51.070;16.998;2023-05-10T07:34:36;5.72;;;3.10;;
2906;SDS011;1463;51.070;16.998;2023-05-10T07:37:05;5.75;;;3.20;;
2906;SDS011;1463;51.070;16.998;2023-05-10T07:39:33;5.20;;;3.13;;
2906;SDS011;1463;51.070;16.998;2023-05-10T07:42:00;7.85;;;3.75;;
2906;SDS011;1463;51.070;16.998;2023-05-10T07:44:28;5.57;;;3.45;;
2906;SDS011;1463;51.070;16.998;2023-05-10T07:46:55;11.48;;;3.95;;
2906;SDS011;1463;51.070;16.998;2023-05-10T07:49:23;6.32;;;3.50;;
2906;SDS011;1463;51.070;16.998;2023-05-10T07:51:50;4.40;;;2.50;;
2906;SDS011;1463;51.070;16.998;2023-05-10T07:54:19;6.90;;;3.47;;
2906;SDS011;1463;51.070;16.998;2023-05-10T07:56:46;4.95;;;2.97;;
2906;SDS011;1463;51.070;16.998;2023-05-10T07:59:14;5.28;;;3.03;;
2906;SDS011;1463;51.070;16.998;2023-05-10T08:01:43;4.95;;;2.80;;
2906;SDS011;1463;51.070;16.998;2023-05-10T08:04:11;4.13;;;2.80;;
2906;SDS011;1463;51.070;16.998;2023-05-10T08:06:39;5.40;;;3.28;;
2906;SDS011;1463;51.070;16.998;2023-05-10T08:09:06;4.15;;;2.85;;
2906;SDS011;1463;51.070;16.998;2023-05-10T08:11:36;4.80;;;2.40;;
2906;SDS011;1463;51.070;16.998;2023-05-10T08:14:03;4.60;;;2.50;;
2906;SDS011;1463;51.070;16.998;2023-05-10T08:16:31;4.03;;;2.80;;
2906;SDS011;1463;51.070;16.998;2023-05-10T08:18:59;7.70;;;3.20;;
2906;SDS011;1463;51.070;16.998;2023-05-10T08:21:26;4.88;;;2.80;;
2906;SDS011;1463;51.070;16.998;2023-05-10T08:23:54;4.00;;;2.40;;
2906;SDS011;1463;51.070;16.998;2023-05-10T08:26:21;4.95;;;2.88;;
2906;SDS011;1463;51.070;16.998;2023-05-10T08:28:50;4.43;;;2.78;;
2906;SDS011;1463;51.070;16.998;2023-05-10T08:31:18;5.18;;;2.58;;
2906;SDS011;1463;51.070;16.998;2023-05-10T08:33:45;3.63;;;2.53;;
2906;SDS011;1463;51.070;16.998;2023-05-10T08:36:13;4.10;;;2.40;;
2906;SDS011;1463;51.070;16.998;2023-05-10T08:38:44;3.95;;;2.88;;
2906;SDS011;1463;51.070;16.998;2023-05-10T08:41:12;6.65;;;3.45;;
2906;SDS011;1463;51.070;16.998;2023-05-10T08:43:40;7.95;;;3.40;;
2906;SDS011;1463;51.070;16.998;2023-05-10T08:46:12;6.32;;;2.53;;
2906;SDS011;1463;51.070;16.998;2023-05-10T08:48:43;8.45;;;3.83;;
2906;SDS011;1463;51.070;16.998;2023-05-10T08:51:12;7.30;;;4.35;;
2906;SDS011;1463;51.070;16.998;2023-05-10T08:53:41;6.10;;;3.03;;
2906;SDS011;1463;51.070;16.998;2023-05-10T08:56:09;5.70;;;3.00;;
2906;SDS011;1463;51.070;16.998;2023-05-10T08:58:36;3.72;;;2.20;;
2906;SDS011;1463;51.070;16.998;2023-05-10T09:01:04;3.45;;;2.35;;
2906;SDS011;1463;51.070;16.998;2023-05-10T09:03:34;5.15;;;2.70;;
2906;SDS011;1463;51.070;16.998;2023-05-10T09:06:04;3.70;;;2.42;;
2906;SDS011;1463;51.070;16.998;2023-05-10T09:08:32;4.45;;;2.55;;
2906;SDS011;1463;51.070;16.998;2023-05-10T09:11:00;5.50;;;2.85;;
2906;SDS011;1463;51.070;16.998;2023-05-10T09:13:28;4.90;;;2.80;;
2906;SDS011;1463;51.070;16.998;2023-05-10T09:15:56;6.50;;;3.15;;
2906;SDS011;1463;51.070;16.998;2023-05-10T09:18:24;6.28;;;2.53;;
2906;SDS011;1463;51.070;16.998;2023-05-10T09:20:53;5.85;;;2.55;;
2906;SDS011;1463;51.070;16.998;2023-05-10T09:23:21;6.13;;;2.53;;
2906;SDS011;1463;51.070;16.998;2023-05-10T09:26:01;7.32;;;2.60;;
2906;SDS011;1463;51.070;16.998;2023-05-10T09:28:31;4.50;;;2.93;;
2906;SDS011;1463;51.070;16.998;2023-05-10T09:30:59;4.65;;;2.80;;
2906;SDS011;1463;51.070;16.998;2023-05-10T09:33:27;3.73;;;2.30;;
2906;SDS011;1463;51.070;16.998;2023-05-10T09:36:05;7.88;;;2.70;;
2906;SDS011;1463;51.070;16.998;2023-05-10T09:38:44;4.50;;;2.53;;
2906;SDS011;1463;51.070;16.998;2023-05-10T09:41:16;3.72;;;2.30;;
2906;SDS011;1463;51.070;16.998;2023-05-10T09:43:45;4.50;;;2.40;;
2906;SDS011;1463;51.070;16.998;2023-05-10T09:46:12;4.38;;;2.28;;
2906;SDS011;1463;51.070;16.998;2023-05-10T09:48:42;6.13;;;2.33;;
2906;SDS011;1463;51.070;16.998;2023-05-10T09:51:14;6.13;;;2.60;;
2906;SDS011;1463;51.070;16.998;2023-05-10T09:53:46;5.23;;;2.20;;
2906;SDS011;1463;51.070;16.998;2023-05-10T09:59:04;3.73;;;2.37;;
2906;SDS011;1463;51.070;16.998;2023-05-10T10:01:32;3.77;;;2.27;;
2906;SDS011;1463;51.070;16.998;2023-05-10T10:04:02;4.60;;;2.80;;
2906;SDS011;1463;51.070;16.998;2023-05-10T10:06:36;3.60;;;2.50;;
2906;SDS011;1463;51.070;16.998;2023-05-10T10:09:04;5.17;;;1.83;;
2906;SDS011;1463;51.070;16.998;2023-05-10T10:11:33;5.50;;;1.97;;
2906;SDS011;1463;51.070;16.998;2023-05-10T10:14:02;4.20;;;2.10;;
2906;SDS011;1463;51.070;16.998;2023-05-10T10:16:29;5.30;;;2.83;;
2906;SDS011;1463;51.070;16.998;2023-05-10T10:18:57;3.27;;;2.00;;
2906;SDS011;1463;51.070;16.998;2023-05-10T10:21:25;4.50;;;2.77;;
2906;SDS011;1463;51.070;16.998;2023-05-10T10:23:54;5.03;;;2.23;;
2906;SDS011;1463;51.070;16.998;2023-05-10T10:26:22;4.30;;;2.10;;
2906;SDS011;1463;51.070;16.998;2023-05-10T10:28:51;3.67;;;2.00;;
2906;SDS011;1463;51.070;16.998;2023-05-10T10:31:45;3.60;;;2.20;;
2906;SDS011;1463;51.070;16.998;2023-05-10T10:34:19;4.47;;;2.43;;
2906;SDS011;1463;51.070;16.998;2023-05-10T10:36:53;3.83;;;2.40;;
2906;SDS011;1463;51.070;16.998;2023-05-10T10:39:23;4.80;;;2.43;;
2906;SDS011;1463;51.070;16.998;2023-05-10T10:41:52;3.40;;;2.20;;
2906;SDS011;1463;51.070;16.998;2023-05-10T10:44:23;4.20;;;2.40;;
2906;SDS011;1463;51.070;16.998;2023-05-10T10:46:59;4.30;;;2.80;;
2906;SDS011;1463;51.070;16.998;2023-05-10T10:49:48;4.27;;;2.73;;
2906;SDS011;1463;51.070;16.998;2023-05-10T10:52:21;4.53;;;2.40;;
2906;SDS011;1463;51.070;16.998;2023-05-10T10:54:56;4.90;;;2.43;;
2906;SDS011;1463;51.070;16.998;2023-05-10T10:57:27;4.47;;;2.40;;
2906;SDS011;1463;51.070;16.998;2023-05-10T11:02:46;10.43;;;2.33;;
2906;SDS011;1463;51.070;16.998;2023-05-10T11:08:07;3.13;;;2.10;;
2906;SDS011;1463;51.070;16.998;2023-05-10T11:10:40;3.17;;;1.77;;
2906;SDS011;1463;51.070;16.998;2023-05-10T11:13:17;3.63;;;2.40;;
2906;SDS011;1463;51.070;16.998;2023-05-10T11:15:55;5.50;;;2.07;;
2906;SDS011;1463;51.070;16.998;2023-05-10T11:18:24;3.03;;;1.83;;
2906;SDS011;1463;51.070;16.998;2023-05-10T11:20:55;4.20;;;2.30;;
2906;SDS011;1463;51.070;16.998;2023-05-10T11:23:29;6.93;;;2.03;;
2906;SDS011;1463;51.070;16.998;2023-05-10T11:26:00;3.70;;;2.33;;
2906;SDS011;1463;51.070;16.998;2023-05-10T11:28:27;4.63;;;2.53;;
2906;SDS011;1463;51.070;16.998;2023-05-10T11:30:55;4.20;;;2.10;;
2906;SDS011;1463;51.070;16.998;2023-05-10T11:33:23;4.50;;;2.13;;
2906;SDS011;1463;51.070;16.998;2023-05-10T11:35:50;3.53;;;2.30;;
2906;SDS011;1463;51.070;16.998;2023-05-10T11:38:18;5.93;;;2.33;;
2906;SDS011;1463;51.070;16.998;2023-05-10T11:40:45;6.97;;;2.27;;
2906;SDS011;1463;51.070;16.998;2023-05-10T11:43:14;3.87;;;1.87;;
2906;SDS011;1463;51.070;16.998;2023-05-10T11:45:42;3.73;;;2.00;;
2906;SDS011;1463;51.070;16.998;2023-05-10T11:48:11;5.03;;;2.00;;
2906;SDS011;1463;51.070;16.998;2023-05-10T11:50:39;4.03;;;2.20;;
2906;SDS011;1463;51.070;16.998;2023-05-10T11:53:06;3.10;;;1.80;;
2906;SDS011;1463;51.070;16.998;2023-05-10T11:55:34;4.00;;;3.37;;
2906;SDS011;1463;51.070;16.998;2023-05-10T11:58:01;3.30;;;2.10;;
2906;SDS011;1463;51.070;16.998;2023-05-10T12:00:30;7.00;;;1.97;;
2906;SDS011;1463;51.070;16.998;2023-05-10T12:03:00;2.57;;;1.60;;
2906;SDS011;1463;51.070;16.998;2023-05-10T12:05:28;4.27;;;2.30;;
2906;SDS011;1463;51.070;16.998;2023-05-10T12:08:12;2.83;;;1.83;;
2906;SDS011;1463;51.070;16.998;2023-05-10T12:10:40;3.93;;;2.10;;
2906;SDS011;1463;51.070;16.998;2023-05-10T12:13:10;3.37;;;1.97;;
2906;SDS011;1463;51.070;16.998;2023-05-10T12:15:41;3.03;;;2.07;;
2906;SDS011;1463;51.070;16.998;2023-05-10T12:18:09;2.80;;;1.63;;
2906;SDS011;1463;51.070;16.998;2023-05-10T12:20:37;3.43;;;1.77;;
2906;SDS011;1463;51.070;16.998;2023-05-10T12:23:07;3.10;;;2.00;;
2906;SDS011;1463;51.070;16.998;2023-05-10T12:25:36;3.50;;;1.73;;
2906;SDS011;1463;51.070;16.998;2023-05-10T12:28:05;2.90;;;1.90;;
2906;SDS011;1463;51.070;16.998;2023-05-10T12:30:34;2.70;;;1.97;;
2906;SDS011;1463;51.070;16.998;2023-05-10T12:33:08;4.40;;;2.00;;
2906;SDS011;1463;51.070;16.998;2023-05-10T12:35:43;2.73;;;1.50;;
2906;SDS011;1463;51.070;16.998;2023-05-10T12:38:25;2.67;;;1.73;;
2906;SDS011;1463;51.070;16.998;2023-05-10T12:40:54;3.03;;;1.70;;
2906;SDS011;1463;51.070;16.998;2023-05-10T12:43:22;5.57;;;3.20;;
2906;SDS011;1463;51.070;16.998;2023-05-10T12:45:50;4.80;;;2.57;;
2906;SDS011;1463;51.070;16.998;2023-05-10T12:48:19;3.40;;;2.30;;
2906;SDS011;1463;51.070;16.998;2023-05-10T12:50:46;3.23;;;1.97;;
2906;SDS011;1463;51.070;16.998;2023-05-10T12:53:14;4.33;;;1.73;;
2906;SDS011;1463;51.070;16.998;2023-05-10T12:55:42;3.50;;;1.97;;
2906;SDS011;1463;51.070;16.998;2023-05-10T12:58:10;2.83;;;1.53;;
2906;SDS011;1463;51.070;16.998;2023-05-10T13:00:37;3.17;;;1.97;;
2906;SDS011;1463;51.070;16.998;2023-05-10T13:03:05;3.83;;;2.10;;
2906;SDS011;1463;51.070;16.998;2023-05-10T13:05:34;4.10;;;2.47;;
2906;SDS011;1463;51.070;16.998;2023-05-10T13:08:01;2.63;;;1.50;;
2906;SDS011;1463;51.070;16.998;2023-05-10T13:10:29;3.60;;;2.70;;
2906;SDS011;1463;51.070;16.998;2023-05-10T13:12:57;13.33;;;5.73;;
2906;SDS011;1463;51.070;16.998;2023-05-10T13:15:25;5.17;;;2.80;;
2906;SDS011;1463;51.070;16.998;2023-05-10T13:17:53;2.90;;;1.47;;
2906;SDS011;1463;51.070;16.998;2023-05-10T13:20:20;3.20;;;1.80;;
2906;SDS011;1463;51.070;16.998;2023-05-10T13:22:49;3.10;;;1.80;;
2906;SDS011;1463;51.070;16.998;2023-05-10T13:25:17;2.63;;;1.53;;
2906;SDS011;1463;51.070;16.998;2023-05-10T13:27:44;2.03;;;1.30;;
2906;SDS011;1463;51.070;16.998;2023-05-10T13:30:12;2.70;;;1.50;;
2906;SDS011;1463;51.070;16.998;2023-05-10T13:32:40;6.00;;;1.80;;
2906;SDS011;1463;51.070;16.998;2023-05-10T13:35:07;2.60;;;1.70;;
2906;SDS011;1463;51.070;16.998;2023-05-10T13:37:35;2.73;;;1.67;;
2906;SDS011;1463;51.070;16.998;2023-05-10T13:40:05;4.00;;;1.50;;
2906;SDS011;1463;51.070;16.998;2023-05-10T13:42:33;2.63;;;1.47;;
2906;SDS011;1463;51.070;16.998;2023-05-10T13:45:01;3.43;;;1.90;;
2906;SDS011;1463;51.070;16.998;2023-05-10T13:47:28;2.40;;;1.50;;
2906;SDS011;1463;51.070;16.998;2023-05-10T13:49:57;3.17;;;1.50;;
2906;SDS011;1463;51.070;16.998;2023-05-10T13:52:26;6.07;;;2.00;;
2906;SDS011;1463;51.070;16.998;2023-05-10T13:54:53;2.93;;;1.60;;
2906;SDS011;1463;51.070;16.998;2023-05-10T13:57:22;4.23;;;1.60;;
2906;SDS011;1463;51.070;16.998;2023-05-10T13:59:51;2.30;;;1.57;;
2906;SDS011;1463;51.070;16.998;2023-05-10T14:02:19;3.93;;;1.57;;
2906;SDS011;1463;51.070;16.998;2023-05-10T14:04:46;6.17;;;1.60;;
2906;SDS011;1463;51.070;16.998;2023-05-10T14:07:14;2.60;;;1.37;;
2906;SDS011;1463;51.070;16.998;2023-05-10T14:09:41;4.20;;;1.90;;
2906;SDS011;1463;51.070;16.998;2023-05-10T14:12:09;2.43;;;1.67;;
2906;SDS011;1463;51.070;16.998;2023-05-10T14:14:38;2.83;;;1.53;;
2906;SDS011;1463;51.070;16.998;2023-05-10T14:17:06;2.50;;;1.43;;
2906;SDS011;1463;51.070;16.998;2023-05-10T14:19:35;3.10;;;1.50;;
2906;SDS011;1463;51.070;16.998;2023-05-10T14:22:04;2.90;;;1.80;;
2906;SDS011;1463;51.070;16.998;2023-05-10T14:24:32;4.37;;;1.83;;
2906;SDS011;1463;51.070;16.998;2023-05-10T14:27:01;3.50;;;1.70;;
2906;SDS011;1463;51.070;16.998;2023-05-10T14:29:29;2.60;;;1.37;;
2906;SDS011;1463;51.070;16.998;2023-05-10T14:31:57;3.73;;;1.83;;
2906;SDS011;1463;51.070;16.998;2023-05-10T14:34:25;2.73;;;1.50;;
2906;SDS011;1463;51.070;16.998;2023-05-10T14:36:53;3.30;;;1.63;;
2906;SDS011;1463;51.070;16.998;2023-05-10T14:39:21;2.50;;;1.40;;
2906;SDS011;1463;51.070;16.998;2023-05-10T14:41:49;5.07;;;1.70;;
2906;SDS011;1463;51.070;16.998;2023-05-10T14:44:18;2.93;;;1.60;;
2906;SDS011;1463;51.070;16.998;2023-05-10T14:46:45;3.10;;;1.83;;
2906;SDS011;1463;51.070;16.998;2023-05-10T14:49:16;2.90;;;1.47;;
2906;SDS011;1463;51.070;16.998;2023-05-10T14:51:43;3.70;;;1.80;;
2906;SDS011;1463;51.070;16.998;2023-05-10T14:54:11;3.78;;;1.55;;
2906;SDS011;1463;51.070;16.998;2023-05-10T14:56:38;4.87;;;1.67;;
2906;SDS011;1463;51.070;16.998;2023-05-10T14:59:06;2.40;;;1.60;;
2906;SDS011;1463;51.070;16.998;2023-05-10T15:01:34;2.30;;;1.70;;
2906;SDS011;1463;51.070;16.998;2023-05-10T15:04:02;3.37;;;1.70;;
2906;SDS011;1463;51.070;16.998;2023-05-10T15:06:32;2.50;;;1.47;;
2906;SDS011;1463;51.070;16.998;2023-05-10T15:09:01;3.50;;;1.50;;
2906;SDS011;1463;51.070;16.998;2023-05-10T15:11:32;3.03;;;1.50;;
2906;SDS011;1463;51.070;16.998;2023-05-10T15:14:02;2.90;;;1.93;;
2906;SDS011;1463;51.070;16.998;2023-05-10T15:16:31;2.67;;;1.40;;
2906;SDS011;1463;51.070;16.998;2023-05-10T15:18:59;2.40;;;1.60;;
2906;SDS011;1463;51.070;16.998;2023-05-10T15:21:26;3.30;;;1.93;;
2906;SDS011;1463;51.070;16.998;2023-05-10T15:23:55;2.53;;;1.57;;